createdAt,value
2023-01-19T00:00:51.489Z,-2.30
2023-01-19T00:03:22.041Z,-2.40
2023-01-19T00:05:50.688Z,-2.40
2023-01-19T00:08:19.284Z,-2.50
2023-01-19T00:10:51.177Z,-2.50
2023-01-19T00:13:20.090Z,-2.50
2023-01-19T00:15:48.837Z,-2.50
2023-01-19T00:18:17.130Z,-2.50
2023-01-19T00:20:48.616Z,-2.60
2023-01-19T00:23:17.778Z,-2.50
2023-01-19T00:25:51.227Z,-2.50
2023-01-19T00:28:20.209Z,-2.60
2023-01-19T00:30:48.431Z,-2.60
2023-01-19T00:33:16.777Z,-2.70
2023-01-19T00:35:45.445Z,-2.70
2023-01-19T00:38:15.105Z,-2.60
2023-01-19T00:40:43.350Z,-2.60
2023-01-19T00:43:11.876Z,-2.60
2023-01-19T00:45:40.219Z,-2.60
2023-01-19T00:48:08.608Z,-2.60
2023-01-19T00:50:36.931Z,-2.60
2023-01-19T00:53:06.955Z,-2.70
2023-01-19T00:55:36.697Z,-2.70
2023-01-19T00:58:04.992Z,-2.70
2023-01-19T01:00:33.488Z,-2.70
2023-01-19T01:03:02.208Z,-2.70
2023-01-19T01:05:30.964Z,-2.70
2023-01-19T01:07:59.295Z,-2.60
2023-01-19T01:10:32.284Z,-2.60
2023-01-19T01:13:21.218Z,-2.70
2023-01-19T01:15:52.152Z,-2.80
2023-01-19T01:18:21.072Z,-2.70
2023-01-19T01:20:49.599Z,-2.60
2023-01-19T01:23:23.208Z,-2.60
2023-01-19T01:25:51.621Z,-2.60
2023-01-19T01:28:21.442Z,-2.50
2023-01-19T01:30:54.306Z,-2.40
2023-01-19T01:33:40.638Z,-2.40
2023-01-19T01:36:10.392Z,-2.50
2023-01-19T01:38:38.789Z,-2.60
2023-01-19T01:41:07.044Z,-2.70
2023-01-19T01:43:49.560Z,-2.80
2023-01-19T01:46:20.004Z,-2.90
2023-01-19T01:48:53.937Z,-3.00
2023-01-19T01:51:28.650Z,-3.00
2023-01-19T01:54:05.004Z,-3.10
2023-01-19T01:56:37.596Z,-3.10
2023-01-19T01:59:10.714Z,-3.40
2023-01-19T02:01:56.742Z,-2.90
2023-01-19T02:04:25.896Z,-2.70
2023-01-19T02:07:11.868Z,-2.50
2023-01-19T02:09:57.672Z,-2.50
2023-01-19T02:12:43.999Z,-2.60
2023-01-19T02:15:18.982Z,-2.50
2023-01-19T02:17:48.288Z,-2.50
2023-01-19T02:20:17.831Z,-2.60
2023-01-19T02:22:51.513Z,-2.60
2023-01-19T02:25:22.530Z,-2.60
2023-01-19T02:27:51.886Z,-2.60
2023-01-19T02:30:20.731Z,-2.60
2023-01-19T02:32:49.136Z,-2.50
2023-01-19T02:35:17.735Z,-2.60
2023-01-19T02:37:46.849Z,-2.60
2023-01-19T02:40:19.812Z,-2.50
2023-01-19T02:42:52.040Z,-2.90
2023-01-19T02:45:23.220Z,-2.50
2023-01-19T02:47:53.850Z,-2.60
2023-01-19T02:50:43.751Z,-2.60
2023-01-19T02:53:28.039Z,-2.60
2023-01-19T02:56:02.734Z,-2.60
2023-01-19T02:58:38.596Z,-2.60
2023-01-19T03:01:16.921Z,-2.70
2023-01-19T03:03:54.747Z,-2.70
2023-01-19T03:06:34.589Z,-2.70
2023-01-19T03:09:09.591Z,-2.70
2023-01-19T03:11:42.942Z,-2.70
2023-01-19T03:14:15.950Z,-2.70
2023-01-19T03:16:48.706Z,-2.60
2023-01-19T03:19:22.568Z,-2.60
2023-01-19T03:21:57.230Z,-2.60
2023-01-19T03:24:27.939Z,-2.60
2023-01-19T03:27:00.749Z,-2.70
2023-01-19T03:29:35.274Z,-2.70
2023-01-19T03:32:09.239Z,-2.70
2023-01-19T03:34:40.172Z,-2.70
2023-01-19T03:37:11.448Z,-2.80
2023-01-19T03:39:40.172Z,-2.80
2023-01-19T03:42:13.033Z,-2.80
2023-01-19T03:44:44.951Z,-2.90
2023-01-19T03:47:16.027Z,-3.00
2023-01-19T03:49:46.444Z,-3.10
2023-01-19T03:52:14.719Z,-3.00
2023-01-19T03:54:43.511Z,-3.00
2023-01-19T03:57:11.795Z,-3.00
2023-01-19T03:59:40.145Z,-3.00
2023-01-19T04:02:09.891Z,-3.00
2023-01-19T04:04:38.337Z,-3.00
2023-01-19T04:07:07.136Z,-3.10
2023-01-19T04:09:35.532Z,-3.10
2023-01-19T04:12:04.141Z,-3.10
2023-01-19T04:14:32.568Z,-3.10
2023-01-19T04:17:01.284Z,-3.20
2023-01-19T04:19:31.183Z,-3.10
2023-01-19T04:21:59.965Z,-3.10
2023-01-19T04:24:28.689Z,-3.10
2023-01-19T04:26:57.600Z,-3.10
2023-01-19T04:29:25.955Z,-3.10
2023-01-19T04:31:54.395Z,-3.20
2023-01-19T04:34:22.865Z,-3.20
2023-01-19T04:36:52.662Z,-3.30
2023-01-19T04:39:20.984Z,-3.30
2023-01-19T04:41:49.260Z,-2.60
2023-01-19T04:44:17.724Z,-3.30
2023-01-19T04:46:46.269Z,-3.30
2023-01-19T04:49:15.422Z,-3.40
2023-01-19T04:51:48.867Z,-3.40
2023-01-19T04:54:18.757Z,-3.40
2023-01-19T04:56:47.160Z,-3.40
2023-01-19T04:59:15.627Z,-3.40
2023-01-19T05:01:44.014Z,-3.40
2023-01-19T05:04:12.102Z,-3.40
2023-01-19T05:06:40.115Z,-3.30
2023-01-19T05:09:09.106Z,-3.30
2023-01-19T05:11:38.513Z,-3.30
2023-01-19T05:14:06.825Z,-3.30
2023-01-19T05:16:34.897Z,-3.30
2023-01-19T05:19:02.995Z,-3.30
2023-01-19T05:21:31.082Z,-3.20
2023-01-19T05:23:59.077Z,-3.30
2023-01-19T05:26:27.275Z,-3.20
2023-01-19T05:28:56.794Z,-3.20
2023-01-19T05:31:25.035Z,-3.20
2023-01-19T05:33:53.083Z,-3.20
2023-01-19T05:36:21.179Z,-3.30
2023-01-19T05:38:49.220Z,-3.30
2023-01-19T05:41:17.727Z,-3.40
2023-01-19T05:43:45.798Z,-3.40
2023-01-19T05:46:15.295Z,-3.40
2023-01-19T05:48:43.308Z,-3.40
2023-01-19T05:51:11.337Z,-3.40
2023-01-19T05:53:39.317Z,-3.40
2023-01-19T05:56:09.542Z,-3.50
2023-01-19T05:58:39.352Z,-3.50
2023-01-19T06:01:09.204Z,-3.50
2023-01-19T06:03:39.437Z,-3.50
2023-01-19T06:06:07.915Z,-3.50
2023-01-19T06:08:36.005Z,-3.40
2023-01-19T06:11:06.960Z,-3.50
2023-01-19T06:13:35.001Z,-3.50
2023-01-19T06:16:03.713Z,-3.50
2023-01-19T06:18:31.836Z,-3.50
2023-01-19T06:21:05.081Z,-3.50
2023-01-19T06:23:34.622Z,-3.60
2023-01-19T06:26:03.844Z,-3.60
2023-01-19T06:28:32.242Z,-3.50
2023-01-19T06:31:00.310Z,-3.50
2023-01-19T06:33:29.028Z,-3.60
2023-01-19T06:35:57.662Z,-3.40
2023-01-19T06:38:27.315Z,-3.60
2023-01-19T06:40:58.508Z,-3.60
2023-01-19T06:43:27.289Z,-3.60
2023-01-19T06:45:56.133Z,-3.60
2023-01-19T06:48:24.505Z,-3.60
2023-01-19T06:50:52.647Z,-3.70
2023-01-19T06:53:22.294Z,-3.70
2023-01-19T06:55:51.749Z,-3.60
2023-01-19T06:58:20.080Z,-3.60
2023-01-19T07:00:49.029Z,-3.60
2023-01-19T07:03:21.446Z,-3.60
2023-01-19T07:05:52.839Z,-3.50
2023-01-19T07:08:21.461Z,-3.60
2023-01-19T07:11:25.279Z,-3.70
2023-01-19T07:13:41.008Z,-3.60
2023-01-19T07:16:11.141Z,-3.50
2023-01-19T07:18:39.735Z,-3.60
2023-01-19T07:21:08.678Z,-3.50
2023-01-19T07:23:38.573Z,-3.50
2023-01-19T07:26:08.257Z,-3.40
2023-01-19T07:28:37.054Z,-3.40
2023-01-19T07:31:05.315Z,-3.40
2023-01-19T07:33:33.496Z,-3.40
2023-01-19T07:36:01.606Z,-3.40
2023-01-19T07:38:29.697Z,-3.40
2023-01-19T07:41:01.771Z,-3.40
2023-01-19T07:43:31.545Z,-3.40
2023-01-19T07:46:00.388Z,-3.40
2023-01-19T07:48:28.769Z,-3.30
2023-01-19T07:51:00.893Z,-3.30
2023-01-19T07:53:29.107Z,-3.20
2023-01-19T07:55:57.672Z,-3.20
2023-01-19T07:58:26.474Z,-3.20
2023-01-19T08:00:56.181Z,-3.20
2023-01-19T08:03:24.403Z,-3.10
2023-01-19T08:05:53.562Z,-3.10
2023-01-19T08:08:21.722Z,-2.90
2023-01-19T08:10:51.728Z,-3.00
2023-01-19T08:13:20.082Z,-3.00
2023-01-19T08:15:51.422Z,-3.00
2023-01-19T08:18:21.463Z,-2.90
2023-01-19T08:20:49.695Z,-2.90
2023-01-19T08:23:18.184Z,-2.80
2023-01-19T08:25:46.491Z,-2.70
2023-01-19T08:28:16.825Z,-2.70
2023-01-19T08:30:45.608Z,-2.70
2023-01-19T08:33:14.743Z,-2.70
2023-01-19T08:35:48.935Z,-2.70
2023-01-19T08:38:17.563Z,-2.60
2023-01-19T08:40:45.950Z,-2.60
2023-01-19T08:43:16.266Z,-2.50
2023-01-19T08:45:49.098Z,-2.40
2023-01-19T08:48:19.149Z,-2.30
2023-01-19T08:50:49.616Z,-2.30
2023-01-19T08:53:18.146Z,-2.30
2023-01-19T08:55:46.447Z,-2.20
2023-01-19T08:58:14.615Z,-2.20
2023-01-19T09:00:42.843Z,-2.20
2023-01-19T09:03:13.727Z,-2.10
2023-01-19T09:05:41.996Z,-2.10
2023-01-19T09:08:13.334Z,-2.00
2023-01-19T09:10:46.993Z,-2.00
2023-01-19T09:13:15.517Z,-2.00
2023-01-19T09:15:44.489Z,-1.90
2023-01-19T09:18:14.724Z,-1.90
2023-01-19T09:20:43.434Z,-1.80
2023-01-19T09:23:14.562Z,-1.70
2023-01-19T09:25:44.936Z,-1.60
2023-01-19T09:28:15.284Z,-0.50
2023-01-19T09:30:44.217Z,-1.50
2023-01-19T09:33:14.721Z,-1.40
2023-01-19T09:35:43.619Z,-1.40
2023-01-19T09:38:13.207Z,-1.40
2023-01-19T09:40:43.873Z,-1.30
2023-01-19T09:43:18.986Z,-1.30
2023-01-19T09:45:52.597Z,-1.20
2023-01-19T09:48:43.752Z,-1.20
2023-01-19T09:51:16.497Z,-1.10
2023-01-19T09:53:56.702Z,-1.00
2023-01-19T09:56:25.683Z,-0.90
2023-01-19T09:58:53.803Z,-0.90
2023-01-19T10:01:35.835Z,-0.90
2023-01-19T10:04:27.570Z,-0.70
2023-01-19T10:07:05.000Z,-0.70
2023-01-19T10:09:42.010Z,-0.70
2023-01-19T10:12:17.938Z,-0.70
2023-01-19T10:14:52.908Z,-0.60
2023-01-19T10:17:35.478Z,-0.50
2023-01-19T10:20:08.900Z,-0.50
2023-01-19T10:22:37.311Z,-0.50
2023-01-19T10:25:18.239Z,-0.30
2023-01-19T10:27:47.496Z,-0.40
2023-01-19T10:30:23.358Z,-0.40
2023-01-19T10:32:52.149Z,-0.40
2023-01-19T10:35:24.423Z,-0.30
2023-01-19T10:37:56.081Z,-0.20
2023-01-19T10:40:32.088Z,-0.20
2023-01-19T10:43:00.557Z,-0.20
2023-01-19T10:45:31.198Z,-0.20
2023-01-19T10:48:02.345Z,-0.10
2023-01-19T10:50:32.643Z,-0.10
2023-01-19T10:53:03.887Z,0.00
2023-01-19T10:55:37.845Z,0.00
2023-01-19T10:58:07.833Z,0.00
2023-01-19T11:00:38.215Z,0.10
2023-01-19T11:03:07.178Z,0.10
2023-01-19T11:05:35.695Z,0.10
2023-01-19T11:08:24.080Z,0.20
2023-01-19T11:11:02.301Z,0.20
2023-01-19T11:13:30.807Z,0.30
2023-01-19T11:16:00.859Z,0.30
2023-01-19T11:18:31.476Z,0.40
2023-01-19T11:21:02.974Z,0.50
2023-01-19T11:23:34.247Z,0.50
2023-01-19T11:26:06.948Z,0.60
2023-01-19T11:28:37.805Z,0.60
2023-01-19T11:31:20.505Z,0.70
2023-01-19T11:33:52.135Z,0.80
2023-01-19T11:36:22.457Z,1.00
2023-01-19T11:38:52.927Z,0.90
2023-01-19T11:41:24.136Z,0.90
2023-01-19T11:43:56.622Z,0.90
2023-01-19T11:46:28.141Z,1.00
2023-01-19T11:49:02.270Z,1.20
2023-01-19T11:51:37.862Z,1.00
2023-01-19T11:54:18.887Z,1.10
2023-01-19T11:56:51.986Z,1.10
2023-01-19T11:59:20.795Z,1.20
2023-01-19T12:01:54.806Z,1.20
2023-01-19T12:04:28.974Z,1.20
2023-01-19T12:06:58.361Z,1.20
2023-01-19T12:09:29.354Z,1.20
2023-01-19T12:12:03.953Z,1.20
2023-01-19T12:14:39.295Z,1.30
2023-01-19T12:17:12.372Z,1.30
2023-01-19T12:19:46.526Z,1.40
2023-01-19T12:22:16.661Z,1.50
2023-01-19T12:24:50.883Z,1.50
2023-01-19T12:27:34.082Z,1.50
2023-01-19T12:30:02.894Z,1.50
2023-01-19T12:32:36.936Z,1.50
2023-01-19T12:35:05.353Z,1.50
2023-01-19T12:37:38.105Z,1.50
2023-01-19T12:40:27.354Z,1.50
2023-01-19T12:43:02.119Z,1.60
2023-01-19T12:45:33.286Z,1.60
2023-01-19T12:48:03.051Z,1.60
2023-01-19T12:50:37.266Z,1.60
2023-01-19T12:53:08.401Z,1.60
2023-01-19T12:55:39.130Z,1.60
2023-01-19T12:58:14.678Z,1.70
2023-01-19T13:00:44.423Z,1.70
2023-01-19T13:03:45.208Z,1.70
2023-01-19T13:06:13.402Z,1.80
2023-01-19T13:09:28.870Z,1.80
2023-01-19T13:12:21.246Z,1.70
2023-01-19T13:14:51.315Z,1.80
2023-01-19T13:17:35.221Z,1.80
2023-01-19T13:20:27.244Z,1.70
2023-01-19T13:23:25.032Z,1.80
2023-01-19T13:26:00.168Z,1.70
2023-01-19T13:28:36.892Z,1.80
2023-01-19T13:31:07.268Z,1.80
2023-01-19T13:33:43.748Z,1.80
2023-01-19T13:36:22.556Z,1.80
2023-01-19T13:38:52.365Z,1.80
2023-01-19T13:41:25.109Z,1.80
2023-01-19T13:44:01.476Z,1.70
2023-01-19T13:46:33.630Z,1.70
2023-01-19T13:49:06.447Z,1.70
2023-01-19T13:51:34.783Z,1.60
2023-01-19T13:54:03.152Z,1.60
2023-01-19T13:56:31.795Z,1.50
2023-01-19T13:59:09.888Z,1.50
2023-01-19T14:01:41.465Z,1.40
2023-01-19T14:04:29.935Z,1.40
2023-01-19T14:07:00.716Z,1.30
2023-01-19T14:09:29.262Z,1.30
2023-01-19T14:12:12.096Z,1.30
2023-01-19T14:14:40.542Z,1.30
2023-01-19T14:17:24.009Z,1.30
2023-01-19T14:19:54.309Z,1.20
2023-01-19T14:22:23.000Z,1.20
2023-01-19T14:24:51.699Z,1.20
2023-01-19T14:27:24.331Z,1.20
2023-01-19T14:29:54.957Z,1.10
2023-01-19T14:32:27.785Z,1.10
2023-01-19T14:35:14.596Z,1.00
2023-01-19T14:37:48.610Z,1.00
2023-01-19T14:40:20.421Z,0.90
2023-01-19T14:42:53.594Z,0.80
2023-01-19T14:45:24.039Z,0.80
2023-01-19T14:47:59.609Z,1.60
2023-01-19T14:50:31.202Z,0.70
2023-01-19T14:53:03.225Z,0.60
2023-01-19T14:55:37.474Z,0.60
2023-01-19T14:58:11.638Z,0.60
2023-01-19T15:00:40.151Z,0.60
2023-01-19T15:03:10.949Z,0.60
2023-01-19T15:05:39.888Z,0.60
2023-01-19T15:08:09.143Z,0.60
2023-01-19T15:10:37.723Z,0.70
2023-01-19T15:13:06.240Z,0.60
2023-01-19T15:15:35.857Z,0.70
2023-01-19T15:18:05.678Z,0.70
2023-01-19T15:20:35.426Z,0.70
2023-01-19T15:23:03.735Z,0.70
2023-01-19T15:25:32.017Z,0.70
2023-01-19T15:28:00.961Z,0.40
2023-01-19T15:30:31.078Z,0.70
2023-01-19T15:33:00.147Z,0.70
2023-01-19T15:35:28.550Z,0.80
2023-01-19T15:37:58.184Z,0.80
2023-01-19T15:40:26.638Z,0.80
2023-01-19T15:42:54.913Z,0.80
2023-01-19T15:45:43.180Z,0.80
2023-01-19T15:48:12.803Z,0.80
2023-01-19T15:50:43.092Z,0.70
2023-01-19T15:53:16.232Z,0.80
2023-01-19T15:55:44.666Z,0.80
2023-01-19T15:58:14.172Z,0.90
2023-01-19T16:00:42.936Z,0.80
2023-01-19T16:03:12.270Z,0.70
2023-01-19T16:05:43.434Z,0.80
2023-01-19T16:08:14.029Z,0.70
2023-01-19T16:10:42.858Z,0.60
2023-01-19T16:13:11.811Z,0.60
2023-01-19T16:15:42.403Z,0.50
2023-01-19T16:18:10.955Z,0.50
2023-01-19T16:20:39.279Z,0.50
2023-01-19T16:23:15.684Z,0.50
2023-01-19T16:25:45.953Z,0.50
2023-01-19T16:28:14.345Z,0.50
2023-01-19T16:30:42.795Z,0.50
2023-01-19T16:33:13.949Z,0.50
2023-01-19T16:35:42.327Z,0.50
2023-01-19T16:38:10.574Z,0.50
2023-01-19T16:40:39.583Z,0.50
2023-01-19T16:43:09.495Z,0.50
2023-01-19T16:45:56.754Z,0.50
2023-01-19T16:48:25.413Z,0.60
2023-01-19T16:51:01.211Z,0.50
2023-01-19T16:53:30.239Z,0.60
2023-01-19T16:55:58.724Z,0.50
2023-01-19T16:58:28.508Z,0.50
2023-01-19T17:00:56.975Z,0.50
2023-01-19T17:03:27.067Z,0.50
2023-01-19T17:05:55.499Z,0.50
2023-01-19T17:08:23.896Z,0.60
2023-01-19T17:10:52.372Z,0.80
2023-01-19T17:13:20.568Z,0.60
2023-01-19T17:15:50.325Z,0.60
2023-01-19T17:18:18.481Z,0.60
2023-01-19T17:20:46.916Z,0.60
2023-01-19T17:23:15.275Z,0.70
2023-01-19T17:25:43.780Z,0.70
2023-01-19T17:28:12.274Z,0.70
2023-01-19T17:30:40.756Z,0.70
2023-01-19T17:33:10.666Z,0.80
2023-01-19T17:35:38.936Z,0.90
2023-01-19T17:38:07.343Z,1.00
2023-01-19T17:40:35.727Z,0.90
2023-01-19T17:43:04.313Z,0.90
2023-01-19T17:45:32.994Z,0.90
2023-01-19T17:48:01.263Z,0.80
2023-01-19T17:50:31.192Z,0.70
2023-01-19T17:52:59.698Z,0.60
2023-01-19T17:55:27.989Z,0.50
2023-01-19T17:57:57.108Z,0.50
2023-01-19T18:00:26.748Z,0.60
2023-01-19T18:02:55.444Z,0.70
2023-01-19T18:05:40.261Z,0.70
2023-01-19T18:08:08.626Z,0.70
2023-01-19T18:10:37.757Z,0.80
2023-01-19T18:13:06.070Z,0.80
2023-01-19T18:15:35.123Z,0.90
2023-01-19T18:18:03.548Z,0.90
2023-01-19T18:20:32.403Z,0.90
2023-01-19T18:23:02.027Z,0.90
2023-01-19T18:25:30.307Z,0.90
2023-01-19T18:27:58.612Z,0.90
2023-01-19T18:30:27.058Z,0.90
2023-01-19T18:32:55.337Z,1.00
2023-01-19T18:35:23.828Z,1.00
2023-01-19T18:37:52.762Z,1.00
2023-01-19T18:40:22.423Z,1.20
2023-01-19T18:42:50.905Z,1.20
2023-01-19T18:45:19.288Z,1.10
2023-01-19T18:47:47.513Z,1.00
2023-01-19T18:50:16.091Z,1.00
2023-01-19T18:52:44.599Z,1.10
2023-01-19T18:55:12.913Z,1.00
2023-01-19T18:57:42.657Z,1.00
2023-01-19T19:00:12.825Z,1.00
2023-01-19T19:02:41.668Z,1.10
2023-01-19T19:05:10.316Z,1.10
2023-01-19T19:07:38.729Z,1.10
2023-01-19T19:10:08.145Z,1.10
2023-01-19T19:12:36.573Z,1.10
2023-01-19T19:15:07.252Z,1.10
2023-01-19T19:17:36.232Z,1.10
2023-01-19T19:20:04.893Z,1.20
2023-01-19T19:22:33.485Z,1.20
2023-01-19T19:25:01.897Z,1.20
2023-01-19T19:27:30.349Z,1.20
2023-01-19T19:29:58.716Z,1.20
2023-01-19T19:32:28.297Z,1.20
2023-01-19T19:34:58.882Z,1.20
2023-01-19T19:37:27.339Z,1.10
2023-01-19T19:39:55.913Z,1.30
2023-01-19T19:42:24.302Z,1.30
2023-01-19T19:44:52.937Z,1.10
2023-01-19T19:47:21.076Z,1.20
2023-01-19T19:49:50.659Z,1.10
2023-01-19T19:52:19.123Z,1.20
2023-01-19T19:54:49.444Z,1.20
2023-01-19T19:57:17.620Z,1.20
2023-01-19T19:59:45.801Z,1.20
2023-01-19T20:02:14.623Z,1.20
2023-01-19T20:04:43.116Z,1.20
2023-01-19T20:07:12.673Z,1.20
2023-01-19T20:09:40.850Z,1.20
2023-01-19T20:12:09.642Z,1.20
2023-01-19T20:14:37.895Z,1.10
2023-01-19T20:17:06.019Z,1.20
2023-01-19T20:19:34.104Z,1.20
2023-01-19T20:22:02.159Z,1.20
2023-01-19T20:24:31.550Z,1.20
2023-01-19T20:26:59.600Z,1.20
2023-01-19T20:29:27.727Z,1.20
2023-01-19T20:31:57.130Z,1.20
2023-01-19T20:34:28.129Z,1.20
2023-01-19T20:36:56.787Z,1.20
2023-01-19T20:39:25.896Z,1.20
2023-01-19T20:41:55.581Z,1.10
2023-01-19T20:44:25.505Z,1.10
2023-01-19T20:46:54.187Z,1.10
2023-01-19T20:49:22.863Z,1.20
2023-01-19T20:51:52.030Z,1.40
2023-01-19T20:54:22.031Z,1.20
2023-01-19T20:56:50.183Z,1.20
2023-01-19T20:59:19.738Z,1.20
2023-01-19T21:01:48.391Z,1.20
2023-01-19T21:04:18.195Z,1.20
2023-01-19T21:06:46.383Z,1.20
2023-01-19T21:09:14.728Z,1.20
2023-01-19T21:11:43.003Z,1.20
2023-01-19T21:14:11.415Z,1.20
2023-01-19T21:16:42.563Z,1.30
2023-01-19T21:19:10.746Z,1.50
2023-01-19T21:21:38.994Z,1.30
2023-01-19T21:24:07.486Z,1.30
2023-01-19T21:26:37.499Z,1.30
2023-01-19T21:29:05.799Z,1.30
2023-01-19T21:31:34.017Z,1.30
2023-01-19T21:34:03.549Z,1.30
2023-01-19T21:36:31.607Z,1.30
2023-01-19T21:39:01.290Z,1.30
2023-01-19T21:41:30.437Z,1.30
2023-01-19T21:43:59.968Z,1.30
2023-01-19T21:46:29.465Z,1.40
2023-01-19T21:48:58.384Z,1.40
2023-01-19T21:51:28.100Z,1.40
2023-01-19T21:53:59.616Z,1.40
2023-01-19T21:56:28.932Z,1.40
2023-01-19T21:58:57.830Z,1.50
2023-01-19T22:01:26.498Z,1.50
2023-01-19T22:03:56.205Z,1.50
2023-01-19T22:06:25.288Z,1.50
2023-01-19T22:08:55.427Z,1.50
2023-01-19T22:11:23.514Z,1.50
2023-01-19T22:13:52.110Z,1.40
2023-01-19T22:16:22.487Z,1.50
2023-01-19T22:18:54.051Z,1.50
2023-01-19T22:21:24.524Z,1.50
2023-01-19T22:23:56.247Z,1.50
2023-01-19T22:26:24.475Z,1.50
2023-01-19T22:28:55.300Z,1.50
2023-01-19T22:31:25.015Z,1.50
2023-01-19T22:33:54.151Z,1.50
2023-01-19T22:36:24.194Z,1.50
2023-01-19T22:38:55.950Z,1.80
2023-01-19T22:41:25.804Z,1.50
2023-01-19T22:43:55.946Z,1.50
2023-01-19T22:46:25.637Z,1.50
2023-01-19T22:48:54.742Z,1.50
2023-01-19T22:51:24.014Z,1.50
2023-01-19T22:53:52.362Z,1.50
2023-01-19T22:56:23.751Z,1.50
2023-01-19T22:58:52.620Z,1.70
2023-01-19T23:01:22.924Z,1.60
2023-01-19T23:03:51.437Z,1.50
2023-01-19T23:06:27.563Z,1.60
2023-01-19T23:08:57.610Z,1.50
2023-01-19T23:11:29.898Z,1.50
2023-01-19T23:14:00.225Z,1.60
2023-01-19T23:16:28.999Z,1.50
2023-01-19T23:18:59.672Z,1.50
2023-01-19T23:21:30.475Z,1.50
2023-01-19T23:24:00.516Z,1.60
2023-01-19T23:26:34.147Z,1.50
2023-01-19T23:29:03.258Z,1.60
2023-01-19T23:31:33.213Z,1.50
2023-01-19T23:34:04.923Z,1.60
2023-01-19T23:36:35.743Z,1.60
2023-01-19T23:39:09.310Z,1.60
2023-01-19T23:41:39.017Z,1.70
2023-01-19T23:44:07.366Z,1.60
2023-01-19T23:46:35.788Z,1.60
2023-01-19T23:49:04.291Z,1.60
2023-01-19T23:51:34.796Z,1.60
2023-01-19T23:54:03.453Z,1.60
2023-01-19T23:56:33.532Z,1.60
2023-01-19T23:59:05.766Z,1.60
